createdAt,value
2024-01-07T00:01:40.953Z,-2.00
2024-01-07T00:04:09.539Z,-2.10
2024-01-07T00:06:39.027Z,-2.10
2024-01-07T00:09:08.698Z,-2.00
2024-01-07T00:11:35.866Z,-2.00
2024-01-07T00:14:03.021Z,-2.00
2024-01-07T00:16:32.292Z,-2.00
2024-01-07T00:18:59.554Z,-2.00
2024-01-07T00:21:27.246Z,-2.00
2024-01-07T00:23:56.168Z,-2.00
2024-01-07T00:26:23.370Z,-2.00
2024-01-07T00:28:50.331Z,-2.10
2024-01-07T00:31:19.050Z,-2.10
2024-01-07T00:33:47.016Z,-2.20
2024-01-07T00:36:13.857Z,-2.40
2024-01-07T00:38:40.945Z,-2.30
2024-01-07T00:41:07.823Z,-2.40
2024-01-07T00:43:35.051Z,-2.40
2024-01-07T00:46:05.554Z,-2.30
2024-01-07T00:48:33.257Z,-2.20
2024-01-07T00:51:02.171Z,-2.20
2024-01-07T00:53:30.190Z,-2.20
2024-01-07T00:55:59.032Z,-2.10
2024-01-07T00:58:25.824Z,-2.30
2024-01-07T01:00:55.236Z,-2.40
2024-01-07T01:03:24.364Z,-2.30
2024-01-07T01:05:52.666Z,-2.40
2024-01-07T01:08:19.620Z,-2.40
2024-01-07T01:10:53.764Z,-2.30
2024-01-07T01:13:21.573Z,-2.30
2024-01-07T01:15:49.756Z,-2.40
2024-01-07T01:18:17.606Z,-2.40
2024-01-07T01:20:44.887Z,-2.40
2024-01-07T01:23:11.673Z,-2.50
2024-01-07T01:25:41.387Z,-2.40
2024-01-07T01:28:11.370Z,-2.50
2024-01-07T01:30:39.997Z,-2.40
2024-01-07T01:33:07.852Z,-2.50
2024-01-07T01:35:35.390Z,-2.50
2024-01-07T01:38:02.988Z,-2.60
2024-01-07T01:40:30.154Z,-2.50
2024-01-07T01:42:57.332Z,-2.40
2024-01-07T01:45:24.193Z,-2.40
2024-01-07T01:47:51.561Z,-2.40
2024-01-07T01:50:18.989Z,-2.50
2024-01-07T01:52:47.193Z,-2.40
2024-01-07T01:55:16.861Z,-2.40
2024-01-07T01:57:45.706Z,-2.60
2024-01-07T02:00:15.858Z,-2.50
2024-01-07T02:02:43.619Z,-2.50
2024-01-07T02:05:11.016Z,-2.50
2024-01-07T02:07:39.863Z,-2.60
2024-01-07T02:10:09.957Z,-2.60
2024-01-07T02:12:38.014Z,-2.50
2024-01-07T02:15:07.930Z,-2.50
2024-01-07T02:17:34.792Z,-2.50
2024-01-07T02:20:01.985Z,-2.50
2024-01-07T02:22:28.842Z,-2.60
2024-01-07T02:24:56.330Z,-2.60
2024-01-07T02:27:23.166Z,-2.70
2024-01-07T02:29:50.041Z,-2.70
2024-01-07T02:32:17.221Z,-2.70
2024-01-07T02:34:45.001Z,-2.70
2024-01-07T02:37:13.447Z,-2.70
2024-01-07T02:39:40.679Z,-2.70
2024-01-07T02:42:07.952Z,-2.80
2024-01-07T02:44:36.241Z,-2.80
2024-01-07T02:47:04.397Z,-2.90
2024-01-07T02:49:32.284Z,-2.80
2024-01-07T02:52:00.669Z,-2.90
2024-01-07T02:54:29.184Z,-2.70
2024-01-07T02:56:57.289Z,-2.70
2024-01-07T02:59:27.240Z,-2.80
2024-01-07T03:01:54.786Z,-2.80
2024-01-07T03:04:23.132Z,-2.90
2024-01-07T03:06:50.065Z,-2.80
2024-01-07T03:09:19.593Z,-2.90
2024-01-07T03:11:46.515Z,-2.90
2024-01-07T03:14:14.262Z,-2.90
2024-01-07T03:16:44.892Z,-2.90
2024-01-07T03:19:11.810Z,-3.00
2024-01-07T03:21:39.344Z,-3.00
2024-01-07T03:24:06.627Z,-3.00
2024-01-07T03:26:34.486Z,-2.90
2024-01-07T03:29:03.199Z,-3.00
2024-01-07T03:31:30.693Z,-3.00
2024-01-07T03:33:57.981Z,-3.00
2024-01-07T03:36:25.692Z,-3.00
2024-01-07T03:38:53.978Z,-3.00
2024-01-07T03:41:22.957Z,-3.00
2024-01-07T03:43:50.895Z,-3.00
2024-01-07T03:46:20.677Z,-3.00
2024-01-07T03:48:47.627Z,-3.00
2024-01-07T03:51:15.165Z,-3.00
2024-01-07T03:53:42.764Z,-3.00
2024-01-07T03:56:13.808Z,-2.90
2024-01-07T03:58:40.909Z,-2.90
2024-01-07T04:01:09.494Z,-2.80
2024-01-07T04:03:37.001Z,-2.80
2024-01-07T04:06:09.491Z,-2.80
2024-01-07T04:08:37.537Z,-2.70
2024-01-07T04:11:05.149Z,-2.70
2024-01-07T04:13:34.861Z,-2.70
2024-01-07T04:16:03.578Z,-2.70
2024-01-07T04:18:30.948Z,-2.70
2024-01-07T04:20:58.339Z,-2.70
2024-01-07T04:23:27.186Z,-2.70
2024-01-07T04:25:56.061Z,-2.70
2024-01-07T04:28:22.812Z,-2.70
2024-01-07T04:30:50.471Z,-2.70
2024-01-07T04:33:23.050Z,-2.70
2024-01-07T04:35:50.179Z,-2.70
2024-01-07T04:38:19.702Z,-2.70
2024-01-07T04:40:46.718Z,-2.70
2024-01-07T04:43:14.211Z,-2.70
2024-01-07T04:45:42.544Z,-2.70
2024-01-07T04:48:09.752Z,-2.80
2024-01-07T04:50:38.098Z,-2.80
2024-01-07T04:53:05.255Z,-2.80
2024-01-07T04:55:32.048Z,-2.90
2024-01-07T04:58:01.915Z,-2.90
2024-01-07T05:00:30.376Z,-2.90
2024-01-07T05:02:57.755Z,-2.90
2024-01-07T05:05:25.350Z,-2.90
2024-01-07T05:07:53.637Z,-2.90
2024-01-07T05:10:21.567Z,-2.80
2024-01-07T05:12:51.584Z,-2.90
2024-01-07T05:15:18.384Z,-3.00
2024-01-07T05:17:46.060Z,-3.00
2024-01-07T05:20:16.828Z,-3.00
2024-01-07T05:22:43.805Z,-2.90
2024-01-07T05:25:11.219Z,-2.90
2024-01-07T05:27:38.674Z,-3.00
2024-01-07T05:30:06.268Z,-2.90
2024-01-07T05:32:33.352Z,-2.90
2024-01-07T05:35:04.696Z,-3.00
2024-01-07T05:37:35.403Z,-3.00
2024-01-07T05:40:02.384Z,-3.00
2024-01-07T05:42:29.721Z,-2.90
2024-01-07T05:44:56.645Z,-3.00
2024-01-07T05:47:23.649Z,-3.00
2024-01-07T05:49:50.777Z,-3.10
2024-01-07T05:52:17.619Z,-3.10
2024-01-07T05:54:44.411Z,-3.00
2024-01-07T05:57:13.662Z,-3.10
2024-01-07T05:59:40.866Z,-3.10
2024-01-07T06:02:07.892Z,-3.10
2024-01-07T06:04:35.151Z,-3.10
2024-01-07T06:07:02.086Z,-3.10
2024-01-07T06:09:29.345Z,-3.10
2024-01-07T06:11:56.679Z,-2.90
2024-01-07T06:14:26.295Z,-3.10
2024-01-07T06:16:53.842Z,-3.10
2024-01-07T06:19:22.816Z,-3.10
2024-01-07T06:21:49.708Z,-3.20
2024-01-07T06:24:16.928Z,-3.20
2024-01-07T06:26:43.920Z,-3.20
2024-01-07T06:29:13.513Z,-3.20
2024-01-07T06:31:47.271Z,-3.20
2024-01-07T06:34:15.588Z,-3.20
2024-01-07T06:36:43.218Z,-3.20
2024-01-07T06:39:10.081Z,-3.20
2024-01-07T06:41:37.032Z,-3.20
2024-01-07T06:44:04.975Z,-3.20
2024-01-07T06:46:32.233Z,-3.20
2024-01-07T06:49:00.113Z,-3.20
2024-01-07T06:51:27.045Z,-3.20
2024-01-07T06:53:54.265Z,-3.20
2024-01-07T06:56:21.241Z,-3.20
2024-01-07T06:58:48.978Z,-3.20
2024-01-07T07:01:21.027Z,-3.20
2024-01-07T07:03:47.988Z,-3.30
2024-01-07T07:06:15.313Z,-3.30
2024-01-07T07:08:42.213Z,-3.20
2024-01-07T07:11:09.639Z,-3.10
2024-01-07T07:13:36.440Z,-3.40
2024-01-07T07:16:03.393Z,-3.40
2024-01-07T07:18:30.647Z,-3.40
2024-01-07T07:20:57.905Z,-3.30
2024-01-07T07:23:24.733Z,-3.30
2024-01-07T07:25:52.133Z,-3.30
2024-01-07T07:28:19.043Z,-3.30
2024-01-07T07:30:47.727Z,-3.30
2024-01-07T07:33:16.989Z,-3.30
2024-01-07T07:35:44.331Z,-3.30
2024-01-07T07:38:11.132Z,-3.30
2024-01-07T07:40:38.297Z,-3.30
2024-01-07T07:43:05.712Z,-3.30
2024-01-07T07:45:32.623Z,-3.40
2024-01-07T07:48:00.092Z,-3.40
2024-01-07T07:50:27.046Z,-3.40
2024-01-07T07:52:54.951Z,-3.40
2024-01-07T07:55:21.986Z,-3.30
2024-01-07T07:57:49.482Z,-3.30
2024-01-07T08:00:16.700Z,-3.40
2024-01-07T08:02:44.297Z,-3.40
2024-01-07T08:05:11.154Z,-3.50
2024-01-07T08:07:38.360Z,-3.50
2024-01-07T08:10:05.829Z,-3.50
2024-01-07T08:12:32.677Z,-3.50
2024-01-07T08:14:59.891Z,-3.50
2024-01-07T08:17:29.149Z,-3.50
2024-01-07T08:19:56.940Z,-3.40
2024-01-07T08:22:23.917Z,-3.40
2024-01-07T08:24:51.877Z,-3.40
2024-01-07T08:27:18.861Z,-3.30
2024-01-07T08:29:45.754Z,-3.20
2024-01-07T08:32:13.679Z,-3.00
2024-01-07T08:34:43.841Z,-3.00
2024-01-07T08:37:11.122Z,-3.00
2024-01-07T08:39:38.251Z,-3.20
2024-01-07T08:42:05.992Z,-3.00
2024-01-07T08:44:33.238Z,-2.80
2024-01-07T08:47:01.986Z,-2.70
2024-01-07T08:49:30.624Z,-2.80
2024-01-07T08:51:59.179Z,-2.80
2024-01-07T08:54:27.542Z,-3.00
2024-01-07T08:56:55.467Z,-3.10
2024-01-07T08:59:22.869Z,-2.70
2024-01-07T09:01:50.042Z,-2.60
2024-01-07T09:04:19.039Z,-2.50
2024-01-07T09:06:46.459Z,-2.40
2024-01-07T09:09:14.053Z,-2.70
2024-01-07T09:11:40.863Z,-2.60
2024-01-07T09:14:07.874Z,-2.40
2024-01-07T09:16:34.659Z,-2.50
2024-01-07T09:19:01.661Z,-2.60
2024-01-07T09:21:29.014Z,-2.60
2024-01-07T09:23:55.895Z,-2.40
2024-01-07T09:26:22.762Z,-2.10
2024-01-07T09:28:50.873Z,-2.30
2024-01-07T09:31:18.318Z,-2.20
2024-01-07T09:33:45.391Z,-2.10
2024-01-07T09:36:21.248Z,-2.50
2024-01-07T09:38:56.194Z,-2.50
2024-01-07T09:41:24.072Z,-2.40
2024-01-07T09:43:56.142Z,-2.30
2024-01-07T09:46:25.244Z,-2.20
2024-01-07T09:48:52.710Z,-2.00
2024-01-07T09:51:25.921Z,-1.90
2024-01-07T09:54:00.016Z,-2.20
2024-01-07T09:56:30.287Z,-2.50
2024-01-07T09:58:57.165Z,-2.60
2024-01-07T10:01:26.340Z,-2.70
2024-01-07T10:03:55.446Z,-2.70
2024-01-07T10:06:23.408Z,-2.90
2024-01-07T10:08:52.215Z,-2.90
2024-01-07T10:11:19.148Z,-3.10
2024-01-07T10:13:52.788Z,-3.10
2024-01-07T10:16:20.433Z,-3.00
2024-01-07T10:18:49.296Z,-2.80
2024-01-07T10:21:16.320Z,-3.10
2024-01-07T10:23:43.483Z,-3.00
2024-01-07T10:26:19.434Z,-2.90
2024-01-07T10:28:51.287Z,-3.10
2024-01-07T10:31:18.790Z,-3.10
2024-01-07T10:33:46.330Z,-3.30
2024-01-07T10:36:14.663Z,-3.10
2024-01-07T10:38:44.654Z,-3.40
2024-01-07T10:41:13.006Z,-3.30
2024-01-07T10:43:44.009Z,-3.20
2024-01-07T10:46:13.499Z,-3.30
2024-01-07T10:48:52.470Z,-3.10
2024-01-07T10:51:22.001Z,-3.00
2024-01-07T10:53:57.174Z,-3.30
2024-01-07T10:56:25.731Z,-3.10
2024-01-07T10:58:54.699Z,-3.10
2024-01-07T11:01:28.791Z,-3.20
2024-01-07T11:04:02.851Z,-3.30
2024-01-07T11:06:53.404Z,-3.30
2024-01-07T11:09:55.795Z,-3.40
2024-01-07T11:12:23.347Z,-3.40
2024-01-07T11:14:54.652Z,-3.30
2024-01-07T11:17:33.712Z,-3.40
2024-01-07T11:20:08.515Z,-3.70
2024-01-07T11:22:36.388Z,-3.50
2024-01-07T11:25:06.592Z,-3.40
2024-01-07T11:27:36.274Z,-3.50
2024-01-07T11:30:22.085Z,-3.50
2024-01-07T11:32:52.275Z,-3.80
2024-01-07T11:35:45.971Z,-3.30
2024-01-07T11:38:12.972Z,-3.70
2024-01-07T11:40:40.255Z,-3.60
2024-01-07T11:43:07.595Z,-3.70
2024-01-07T11:45:34.451Z,-3.60
2024-01-07T11:48:06.616Z,-3.50
2024-01-07T11:50:36.957Z,-3.60
2024-01-07T11:53:03.985Z,-3.50
2024-01-07T11:55:34.319Z,-3.80
2024-01-07T11:58:04.292Z,-3.90
2024-01-07T12:00:36.239Z,-4.00
2024-01-07T12:03:04.912Z,-4.30
2024-01-07T12:05:39.081Z,-4.30
2024-01-07T12:08:07.220Z,-4.20
2024-01-07T12:10:36.706Z,-4.20
2024-01-07T12:13:05.014Z,-4.20
2024-01-07T12:15:34.309Z,-4.10
2024-01-07T12:18:03.456Z,-4.10
2024-01-07T12:20:30.905Z,-4.10
2024-01-07T12:23:08.305Z,-4.20
2024-01-07T12:25:35.630Z,-4.40
2024-01-07T12:28:03.543Z,-4.80
2024-01-07T12:30:32.403Z,-4.60
2024-01-07T12:33:01.867Z,-4.50
2024-01-07T12:35:30.365Z,-4.40
2024-01-07T12:37:57.444Z,-4.50
2024-01-07T12:40:26.237Z,-4.50
2024-01-07T12:42:53.530Z,-4.50
2024-01-07T12:45:23.574Z,-4.60
2024-01-07T12:47:50.603Z,-4.40
2024-01-07T12:50:20.160Z,-4.70
2024-01-07T12:52:47.109Z,-4.60
2024-01-07T12:55:14.022Z,-4.50
2024-01-07T12:57:41.162Z,-4.60
2024-01-07T13:00:09.059Z,-4.70
2024-01-07T13:02:41.083Z,-4.80
2024-01-07T13:05:08.978Z,-4.60
2024-01-07T13:07:37.634Z,-4.70
2024-01-07T13:10:05.033Z,-4.90
2024-01-07T13:12:40.243Z,-4.80
2024-01-07T13:15:17.120Z,-4.60
2024-01-07T13:17:45.271Z,-4.70
2024-01-07T13:20:15.955Z,-4.90
2024-01-07T13:22:43.524Z,-4.90
2024-01-07T13:25:14.010Z,-4.80
2024-01-07T13:27:42.207Z,-5.00
2024-01-07T13:30:10.610Z,-4.90
2024-01-07T13:32:38.937Z,-4.90
2024-01-07T13:35:07.483Z,-4.80
2024-01-07T13:37:36.005Z,-5.00
2024-01-07T13:40:05.112Z,-5.10
2024-01-07T13:42:33.195Z,-5.10
2024-01-07T13:45:00.133Z,-5.10
2024-01-07T13:47:27.761Z,-5.20
2024-01-07T13:49:54.923Z,-5.10
2024-01-07T13:52:23.391Z,-5.30
2024-01-07T13:57:19.722Z,-5.20
2024-01-07T13:59:47.199Z,-5.10
2024-01-07T14:02:14.562Z,-5.30
2024-01-07T14:04:42.490Z,-5.40
2024-01-07T14:07:09.628Z,-5.40
2024-01-07T14:09:37.302Z,-5.40
2024-01-07T14:12:06.337Z,-5.50
2024-01-07T14:14:33.299Z,-5.50
2024-01-07T14:17:01.771Z,-5.50
2024-01-07T14:19:29.205Z,-5.50
2024-01-07T14:21:57.329Z,-5.50
2024-01-07T14:24:24.718Z,-5.50
2024-01-07T14:26:55.657Z,-5.50
2024-01-07T14:29:26.727Z,-5.60
2024-01-07T14:32:04.875Z,-5.70
2024-01-07T14:34:43.978Z,-5.70
2024-01-07T14:40:07.517Z,-5.70
2024-01-07T14:42:37.144Z,-5.70
2024-01-07T14:45:05.735Z,-5.80
2024-01-07T14:47:32.797Z,-5.80
2024-01-07T14:50:00.035Z,-5.80
2024-01-07T14:52:30.972Z,-5.90
2024-01-07T14:55:01.101Z,-5.90
2024-01-07T14:57:31.153Z,-5.90
2024-01-07T14:59:58.264Z,-5.90
2024-01-07T15:02:26.314Z,-6.00
2024-01-07T15:04:55.548Z,-6.00
2024-01-07T15:07:24.144Z,-6.00
2024-01-07T15:09:51.236Z,-6.00
2024-01-07T15:12:19.887Z,-6.00
2024-01-07T15:14:48.131Z,-6.00
2024-01-07T15:17:28.649Z,-6.00
2024-01-07T15:22:54.428Z,-6.00
2024-01-07T15:25:24.953Z,-6.10
2024-01-07T15:27:53.974Z,-6.00
2024-01-07T15:30:35.284Z,-6.10
2024-01-07T15:38:57.703Z,-6.20
2024-01-07T15:41:24.912Z,-6.20
2024-01-07T15:44:05.566Z,-6.20
2024-01-07T15:46:33.088Z,-6.10
2024-01-07T15:49:00.484Z,-6.10
2024-01-07T15:51:47.454Z,-6.10
2024-01-07T15:54:33.641Z,-6.00
2024-01-07T15:59:51.091Z,-6.00
2024-01-07T16:02:34.268Z,-6.10
2024-01-07T16:05:07.556Z,-5.60
2024-01-07T16:07:34.752Z,-6.20
2024-01-07T16:10:01.906Z,-6.20
2024-01-07T16:12:31.752Z,-6.30
2024-01-07T16:15:00.453Z,-6.30
2024-01-07T16:17:28.491Z,-6.40
2024-01-07T16:19:55.669Z,-6.30
2024-01-07T16:22:26.750Z,-6.40
2024-01-07T16:27:35.604Z,-6.50
2024-01-07T16:30:02.813Z,-6.60
2024-01-07T16:32:35.977Z,-6.60
2024-01-07T16:35:10.849Z,-6.60
2024-01-07T16:37:46.479Z,-6.60
2024-01-07T16:40:18.591Z,-6.70
2024-01-07T16:43:01.144Z,-6.70
2024-01-07T16:50:54.662Z,-6.80
2024-01-07T16:53:36.898Z,-6.80
2024-01-07T16:56:08.437Z,-6.80
2024-01-07T16:58:37.230Z,-6.80
2024-01-07T17:03:59.448Z,-6.70
2024-01-07T17:06:29.567Z,-6.70
2024-01-07T17:09:08.542Z,-6.70
2024-01-07T17:11:40.931Z,-6.80
2024-01-07T17:14:11.673Z,-6.80
2024-01-07T17:16:38.928Z,-6.80
2024-01-07T17:19:07.058Z,-6.80
2024-01-07T17:21:33.856Z,-6.80
2024-01-07T17:24:01.278Z,-6.90
2024-01-07T17:26:30.480Z,-6.80
2024-01-07T17:29:10.131Z,-6.90
2024-01-07T17:31:42.388Z,-6.90
2024-01-07T17:34:10.879Z,-6.90
2024-01-07T17:36:37.820Z,-6.90
2024-01-07T17:39:11.520Z,-7.00
2024-01-07T17:41:39.396Z,-6.90
2024-01-07T17:44:07.674Z,-6.90
2024-01-07T17:49:12.857Z,-7.00
2024-01-07T17:51:43.505Z,-6.80
2024-01-07T17:54:10.768Z,-6.90
2024-01-07T17:56:38.576Z,-6.90
2024-01-07T17:59:07.382Z,-6.90
2024-01-07T18:01:35.146Z,-6.90
2024-01-07T18:04:07.682Z,-7.00
2024-01-07T18:06:35.308Z,-7.00
2024-01-07T18:09:03.781Z,-7.00
2024-01-07T18:11:30.719Z,-6.90
2024-01-07T18:13:58.452Z,-7.00
2024-01-07T18:16:28.879Z,-7.00
2024-01-07T18:19:02.006Z,-7.10
2024-01-07T18:21:44.178Z,-7.10
2024-01-07T18:24:17.287Z,-7.10
2024-01-07T18:26:44.501Z,-7.00
2024-01-07T18:29:16.831Z,-7.10
2024-01-07T18:31:46.168Z,-7.00
2024-01-07T18:34:13.582Z,-7.00
2024-01-07T18:36:42.650Z,-7.00
2024-01-07T18:39:14.553Z,-7.10
2024-01-07T18:41:42.012Z,-7.10
2024-01-07T18:44:09.821Z,-7.10
2024-01-07T18:46:41.197Z,-7.10
2024-01-07T18:49:08.170Z,-7.10
2024-01-07T18:51:41.554Z,-7.10
2024-01-07T18:54:08.795Z,-7.20
2024-01-07T18:56:36.815Z,-7.10
2024-01-07T18:59:03.893Z,-7.10
2024-01-07T19:01:30.996Z,-7.00
2024-01-07T19:03:58.479Z,-7.00
2024-01-07T19:06:25.274Z,-7.00
2024-01-07T19:08:55.139Z,-7.00
2024-01-07T19:11:26.563Z,-7.00
2024-01-07T19:13:53.852Z,-7.10
2024-01-07T19:19:13.372Z,-6.90
2024-01-07T19:21:46.172Z,-7.00
2024-01-07T19:24:14.616Z,-7.10
2024-01-07T19:27:08.511Z,-7.20
2024-01-07T19:29:44.874Z,-7.20
2024-01-07T19:32:19.396Z,-7.20
2024-01-07T19:37:44.745Z,-7.20
2024-01-07T19:40:12.714Z,-7.20
2024-01-07T19:42:42.698Z,-7.30
2024-01-07T19:45:13.614Z,-7.30
2024-01-07T19:47:43.892Z,-7.30
2024-01-07T19:50:23.736Z,-7.20
2024-01-07T19:53:13.407Z,-7.20
2024-01-07T19:58:45.873Z,-7.20
2024-01-07T20:01:15.101Z,-7.30
2024-01-07T20:03:51.609Z,-7.30
2024-01-07T20:06:29.180Z,-7.20
2024-01-07T20:09:01.646Z,-7.30
2024-01-07T20:14:19.173Z,-7.30
2024-01-07T20:16:52.420Z,-7.30
2024-01-07T20:19:20.860Z,-7.20
2024-01-07T20:21:55.717Z,-7.30
2024-01-07T20:24:25.446Z,-7.20
2024-01-07T20:26:54.519Z,-7.20
2024-01-07T20:29:29.776Z,-7.30
2024-01-07T20:34:53.093Z,-7.20
2024-01-07T20:37:21.738Z,-7.20
2024-01-07T20:39:55.514Z,-7.30
2024-01-07T20:42:39.023Z,-7.20
2024-01-07T20:45:13.599Z,-7.20
2024-01-07T20:47:43.368Z,-7.20
2024-01-07T20:50:14.208Z,-7.20
2024-01-07T20:52:42.489Z,-7.20
2024-01-07T20:55:14.010Z,-7.20
2024-01-07T20:57:40.844Z,-7.20
2024-01-07T21:00:11.507Z,-7.30
2024-01-07T21:02:39.314Z,-7.20
2024-01-07T21:05:09.142Z,-7.20
2024-01-07T21:07:38.439Z,-7.20
2024-01-07T21:10:05.628Z,-7.20
2024-01-07T21:12:35.148Z,-7.20
2024-01-07T21:15:02.058Z,-7.10
2024-01-07T21:17:29.830Z,-7.20
2024-01-07T21:19:57.142Z,-7.10
2024-01-07T21:22:24.694Z,-7.20
2024-01-07T21:24:52.042Z,-7.20
2024-01-07T21:27:19.100Z,-7.20
2024-01-07T21:29:49.675Z,-7.20
2024-01-07T21:32:17.586Z,-7.20
2024-01-07T21:34:45.106Z,-7.20
2024-01-07T21:37:13.142Z,-7.20
2024-01-07T21:39:43.689Z,-7.20
2024-01-07T21:42:13.303Z,-7.30
2024-01-07T21:44:40.213Z,-7.30
2024-01-07T21:47:07.226Z,-7.20
2024-01-07T21:49:36.653Z,-7.20
2024-01-07T21:52:03.902Z,-7.20
2024-01-07T21:54:30.741Z,-7.20
2024-01-07T21:56:59.204Z,-7.30
2024-01-07T21:59:26.248Z,-7.20
2024-01-07T22:01:53.424Z,-7.30
2024-01-07T22:04:20.514Z,-7.30
2024-01-07T22:06:47.773Z,-7.30
2024-01-07T22:09:15.478Z,-7.30
2024-01-07T22:11:44.375Z,-7.40
2024-01-07T22:14:11.808Z,-7.30
2024-01-07T22:16:41.330Z,-7.30
2024-01-07T22:19:12.809Z,-7.30
2024-01-07T22:21:40.604Z,-7.30
2024-01-07T22:24:10.819Z,-7.40
2024-01-07T22:26:44.487Z,-7.30
2024-01-07T22:29:11.842Z,-7.40
2024-01-07T22:31:39.176Z,-7.30
2024-01-07T22:34:08.628Z,-7.30
2024-01-07T22:36:40.505Z,-7.40
2024-01-07T22:39:11.406Z,-7.40
2024-01-07T22:41:46.654Z,-7.50
2024-01-07T22:47:05.144Z,-7.50
2024-01-07T22:49:42.887Z,-7.40
2024-01-07T22:52:15.137Z,-7.40
2024-01-07T22:54:42.538Z,-7.40
2024-01-07T22:57:09.698Z,-7.50
2024-01-07T22:59:37.896Z,-7.30
2024-01-07T23:02:06.130Z,-7.50
2024-01-07T23:04:32.981Z,-7.50
2024-01-07T23:07:00.374Z,-7.50
2024-01-07T23:09:28.692Z,-7.50
2024-01-07T23:11:55.833Z,-7.50
2024-01-07T23:14:23.768Z,-7.50
2024-01-07T23:16:52.690Z,-7.50
2024-01-07T23:19:21.754Z,-7.50
2024-01-07T23:21:49.088Z,-7.60
2024-01-07T23:24:22.453Z,-7.60
2024-01-07T23:26:51.091Z,-7.60
2024-01-07T23:31:48.835Z,-7.60
2024-01-07T23:37:57.596Z,-7.60
2024-01-07T23:40:24.804Z,-7.60
2024-01-07T23:42:52.026Z,-7.60
2024-01-07T23:45:19.367Z,-7.60
2024-01-07T23:47:55.602Z,-7.60
2024-01-07T23:50:23.979Z,-7.60
2024-01-07T23:52:51.186Z,-7.60
2024-01-07T23:55:18.526Z,-7.70
2024-01-07T23:57:45.713Z,-7.70
